Terminal Aerodrome Forecast
Issued by NWS

Home | Current Version | Previous Version | Text Only | Print | Product List | Glossary On
Versions: 1 2 3 4 5 6 7 8 9 10 11 12 13 14 15 16 17 18
899
FTUS43 KMQT 231725
TAFSAW
TAF
KSAW 231725Z 2318/2418 04005KT P6SM BKN060
     FM240200 01006KT P6SM OVC030
     FM240500 01005KT P6SM OVC015
     FM241500 03008KT P6SM BKN020
     FM241700 03009KT P6SM BKN035=

USA.gov is the U.S. government's official web portal to all federal, state and local government web resources and services.